Time;durP1;ratioP1;P1;durP2;ratioP2;P2;SDS_P1;SDS_P2;PMS_P1;PMS_P2;Temp;Humidity;BMP_temperature;BMP_pressure;BME280_temperature;BME280_humidity;BME280_pressure;Samples;Min_cycle;Max_cycle;Signal;HPM_P1;HPM_P2
2023/01/23 00:00:25;;;;;;;21.48;12.60;;;;;;;0.08;100.00;103727.56;5111509;28;20031;-78
2023/01/23 00:02:51;;;;;;;27.55;13.55;;;;;;;0.08;100.00;103730.16;5111363;28;20127;-78
2023/01/23 00:05:16;;;;;;;24.20;13.73;;;;;;;0.10;100.00;103725.78;5109605;28;20042;-77
2023/01/23 00:07:42;;;;;;;24.75;13.25;;;;;;;0.10;100.00;103726.66;5110821;28;20122;-77
2023/01/23 00:10:08;;;;;;;22.52;12.63;;;;;;;0.10;100.00;103729.28;5110163;28;20035;-78
2023/01/23 00:12:33;;;;;;;31.63;13.30;;;;;;;0.10;100.00;103728.41;5110977;28;20050;-77
2023/01/23 00:14:58;;;;;;;23.42;12.73;;;;;;;0.12;100.00;103737.13;5110866;28;20416;-77
2023/01/23 00:17:26;;;;;;;20.33;12.10;;;;;;;0.11;100.00;103735.41;5109430;28;20309;-78
2023/01/23 00:19:53;;;;;;;19.85;12.95;;;;;;;0.11;100.00;103724.94;5110899;28;20028;-77
2023/01/23 00:22:18;;;;;;;25.65;13.40;;;;;;;0.10;100.00;103717.94;5110827;28;20035;-78
2023/01/23 00:24:43;;;;;;;28.83;13.93;;;;;;;0.10;100.00;103718.78;5110994;28;20134;-77
2023/01/23 00:27:09;;;;;;;29.27;14.05;;;;;;;0.08;100.00;103715.31;5110900;28;20027;-79
2023/01/23 00:29:34;;;;;;;20.13;12.32;;;;;;;0.10;100.00;103712.69;5108726;28;20166;-78
2023/01/23 00:31:59;;;;;;;25.95;13.07;;;;;;;0.08;100.00;103709.22;5110448;28;20123;-78
2023/01/23 00:34:25;;;;;;;26.75;14.30;;;;;;;0.09;100.00;103708.31;5110280;28;20112;-78
2023/01/23 00:36:50;;;;;;;23.60;12.57;;;;;;;0.07;100.00;103700.47;5110587;28;20063;-77
2023/01/23 00:39:18;;;;;;;28.25;14.25;;;;;;;0.08;100.00;103703.97;5110389;28;20387;-78
2023/01/23 00:41:48;;;;;;;26.10;13.45;;;;;;;0.07;100.00;103704.84;5110524;28;20416;-79
2023/01/23 00:44:14;;;;;;;25.77;13.68;;;;;;;0.07;100.00;103708.31;5110881;28;20134;-77
2023/01/23 00:46:39;;;;;;;27.30;13.80;;;;;;;0.07;100.00;103707.47;5109530;28;20031;-78
2023/01/23 00:49:05;;;;;;;20.85;12.73;;;;;;;0.05;100.00;103699.63;5111011;28;20478;-78
2023/01/23 00:51:30;;;;;;;24.33;13.13;;;;;;;0.05;100.00;103696.13;5109353;28;20436;-78
2023/01/23 00:53:55;;;;;;;25.40;12.70;;;;;;;0.02;100.00;103694.38;5110797;28;20043;-78
2023/01/23 00:56:21;;;;;;;20.90;12.95;;;;;;;0.01;100.00;103695.25;5110860;28;20408;-79
2023/01/23 00:58:46;;;;;;;23.73;12.05;;;;;;;0.00;100.00;103701.38;5110403;28;20054;-78
2023/01/23 01:01:13;;;;;;;22.55;13.48;;;;;;;-0.02;100.00;103701.34;5110932;28;20392;-79
2023/01/23 01:03:38;;;;;;;26.20;13.73;;;;;;;-0.03;100.00;103697.00;5111054;28;20055;-78
2023/01/23 01:06:04;;;;;;;26.20;13.45;;;;;;;-0.06;100.00;103694.38;5110595;28;20039;-78
2023/01/23 01:08:29;;;;;;;26.98;12.98;;;;;;;-0.05;100.00;103697.88;5109936;28;20043;-77
2023/01/23 01:10:55;;;;;;;23.33;12.68;;;;;;;-0.08;100.00;103696.13;5109853;28;20096;-78
2023/01/23 01:13:22;;;;;;;26.67;13.57;;;;;;;-0.08;100.00;103687.41;5108712;28;20035;-79
2023/01/23 01:15:49;;;;;;;26.23;12.98;;;;;;;-0.10;100.00;103683.91;5110185;28;20040;-78
2023/01/23 01:18:14;;;;;;;28.27;12.48;;;;;;;-0.10;100.00;103686.53;5109810;28;20421;-79
2023/01/23 01:20:41;;;;;;;24.52;12.73;;;;;;;-0.12;100.00;103702.25;5112385;28;20173;-79
2023/01/23 01:23:07;;;;;;;25.35;12.98;;;;;;;-0.13;100.00;103695.25;5113015;28;20035;-78
2023/01/23 01:25:32;;;;;;;28.48;12.82;;;;;;;-0.13;100.00;103699.63;5113799;28;20035;-79
2023/01/23 01:27:58;;;;;;;24.83;13.50;;;;;;;-0.15;100.00;103697.00;5114215;28;20042;-78
2023/01/23 01:30:25;;;;;;;24.77;13.77;;;;;;;-0.16;100.00;103699.59;5114025;28;20083;-78
2023/01/23 01:32:52;;;;;;;24.35;12.77;;;;;;;-0.20;100.00;103698.75;5113932;28;20384;-79
2023/01/23 01:35:18;;;;;;;20.05;12.35;;;;;;;-0.19;100.00;103703.09;5095761;28;20394;-78
2023/01/23 01:37:44;;;;;;;22.48;12.73;;;;;;;-0.22;100.00;103710.97;5113910;28;20046;-78
2023/01/23 01:40:15;;;;;;;26.30;12.77;;;;;;;-0.23;100.00;103709.22;5112613;28;20363;-77
2023/01/23 01:42:43;;;;;;;27.60;12.95;;;;;;;-0.26;100.00;103717.06;5112429;28;20098;-79
2023/01/23 01:45:46;;;;;;;22.50;12.45;;;;;;;-0.27;100.00;103716.19;5113581;28;20042;-78
2023/01/23 01:48:12;;;;;;;27.05;13.27;;;;;;;-0.29;100.00;103714.44;5113399;28;20041;-78
2023/01/23 01:50:38;;;;;;;25.35;12.85;;;;;;;-0.31;100.00;103717.06;5113570;28;20468;-79
2023/01/23 01:53:04;;;;;;;29.50;13.15;;;;;;;-0.31;100.00;103718.78;5113275;28;20054;-79
2023/01/23 01:55:30;;;;;;;30.45;12.60;;;;;;;-0.32;100.00;103724.91;5113443;27;20472;-78
2023/01/23 01:57:56;;;;;;;24.90;12.55;;;;;;;-0.34;100.00;103719.66;5113458;28;20082;-78
2023/01/23 02:00:21;;;;;;;27.02;12.90;;;;;;;-0.33;100.00;103723.16;5111917;28;20436;-77
2023/01/23 02:02:52;;;;;;;27.73;12.75;;;;;;;-0.34;100.00;103716.16;5112264;28;20190;-79
2023/01/23 02:05:25;;;;;;;25.42;13.05;;;;;;;-0.36;100.00;103718.78;5113476;28;20062;-79
2023/01/23 02:07:59;;;;;;;30.17;13.48;;;;;;;-0.37;100.00;103717.91;5113592;28;20059;-79
2023/01/23 02:10:25;;;;;;;24.15;12.57;;;;;;;-0.37;100.00;103720.53;5113367;28;20185;-78
2023/01/23 02:12:52;;;;;;;26.48;13.25;;;;;;;-0.38;100.00;103729.25;5113355;28;20119;-77
2023/01/23 02:15:20;;;;;;;29.73;12.90;;;;;;;-0.38;100.00;103731.84;5113199;28;20074;-80
2023/01/23 02:17:48;;;;;;;27.00;13.48;;;;;;;-0.38;100.00;103725.75;5113146;28;20143;-78
2023/01/23 02:20:26;;;;;;;22.17;12.57;;;;;;;-0.39;100.00;103732.75;5113215;28;20041;-79
2023/01/23 02:23:09;;;;;;;28.73;13.05;;;;;;;-0.39;100.00;103732.75;5112787;28;20019;-79
2023/01/23 02:25:44;;;;;;;27.92;12.52;;;;;;;-0.39;100.00;103739.69;5112934;28;20405;-77
2023/01/23 02:28:15;;;;;;;22.73;13.38;;;;;;;-0.39;100.00;103734.47;5111455;28;20032;-78
2023/01/23 02:30:41;;;;;;;;;;;;;;;-0.39;100.00;103726.63;5111668;28;20039;-77
2023/01/23 02:33:11;;;;;;;24.67;13.05;;;;;;;-0.40;100.00;103731.00;5111252;28;19925;-78
2023/01/23 02:35:38;;;;;;;28.77;13.35;;;;;;;-0.40;100.00;103733.59;5111498;28;20052;-78
2023/01/23 02:38:05;;;;;;;26.20;12.45;;;;;;;-0.40;100.00;103730.13;5112432;28;20571;-77
2023/01/23 02:40:37;;;;;;;24.20;13.18;;;;;;;-0.43;100.00;103723.13;5112271;28;20115;-78
2023/01/23 02:43:05;;;;;;;22.60;11.55;;;;;;;-0.41;100.00;103725.75;5112896;28;20031;-78
2023/01/23 02:45:31;;;;;;;30.13;13.73;;;;;;;-0.41;100.00;103716.16;5112817;27;20438;-79
2023/01/23 02:47:56;;;;;;;33.30;14.00;;;;;;;-0.40;100.00;103722.28;5111433;28;20047;-77
2023/01/23 02:50:22;;;;;;;26.38;13.02;;;;;;;-0.40;100.00;103720.53;5111478;28;20146;-78
2023/01/23 02:52:49;;;;;;;26.33;13.32;;;;;;;-0.40;100.00;103720.53;5112879;28;20024;-78
2023/01/23 02:55:16;;;;;;;24.05;13.38;;;;;;;-0.40;100.00;103727.50;5112427;28;20083;-80
2023/01/23 02:57:44;;;;;;;34.22;14.50;;;;;;;-0.41;100.00;103726.63;5111891;28;20092;-79
2023/01/23 03:00:16;;;;;;;25.98;13.25;;;;;;;-0.40;100.00;103732.75;5112590;28;20042;-79
2023/01/23 03:02:50;;;;;;;32.40;13.60;;;;;;;-0.40;100.00;103737.97;5095450;28;20028;-80
2023/01/23 03:05:17;;;;;;;27.35;14.55;;;;;;;-0.38;100.00;103731.00;5112770;28;20437;-80
2023/01/23 03:07:43;;;;;;;26.10;12.98;;;;;;;-0.37;100.00;103735.38;5110955;28;20170;-79
2023/01/23 03:10:10;;;;;;;32.47;13.65;;;;;;;-0.39;100.00;103729.22;5112404;28;20122;-78
2023/01/23 03:12:42;;;;;;;33.90;14.30;;;;;;;-0.39;100.00;103722.28;5110567;28;20046;-78
2023/01/23 03:15:08;;;;;;;30.52;14.75;;;;;;;-0.36;100.00;103719.66;5112225;28;20157;-77
2023/01/23 03:17:33;;;;;;;42.25;14.18;;;;;;;-0.35;100.00;103725.75;5111785;28;20130;-78
2023/01/23 03:20:00;;;;;;;39.83;14.48;;;;;;;-0.33;100.00;103729.25;5112324;28;20103;-78
2023/01/23 03:22:25;;;;;;;35.33;14.30;;;;;;;-0.34;100.00;103727.53;5111978;28;20261;-80
2023/01/23 03:24:50;;;;;;;28.40;13.35;;;;;;;-0.33;100.00;103736.22;5111866;28;20043;-78
2023/01/23 03:27:16;;;;;;;31.70;13.82;;;;;;;-0.33;100.00;103733.63;5111759;28;20039;-78
2023/01/23 03:32:25;;;;;;;29.75;13.80;;;;;;;-0.33;100.00;103739.72;5111647;28;20161;-79
2023/01/23 03:34:51;;;;;;;29.45;13.85;;;;;;;-0.32;100.00;103740.59;5111776;28;20043;-79
2023/01/23 03:37:18;;;;;;;34.85;14.45;;;;;;;-0.33;100.00;103747.56;5111593;28;20108;-78
2023/01/23 03:42:28;;;;;;;38.15;14.85;;;;;;;-0.33;100.00;103750.19;5111773;28;20050;-80
2023/01/23 03:44:53;;;;;;;37.15;14.05;;;;;;;-0.31;100.00;103748.44;5111738;28;20358;-79
2023/01/23 03:47:19;;;;;;;35.67;14.50;;;;;;;-0.31;100.00;103753.69;5111431;28;20036;-76
2023/01/23 03:49:45;;;;;;;29.40;14.07;;;;;;;-0.31;100.00;103750.19;5111610;27;20035;-77
2023/01/23 03:52:10;;;;;;;39.85;14.80;;;;;;;-0.31;100.00;103758.03;5093073;28;20118;-78
2023/01/23 03:54:36;;;;;;;30.73;14.00;;;;;;;-0.30;100.00;103755.44;5111452;28;20412;-78
2023/01/23 03:57:01;;;;;;;32.63;14.63;;;;;;;-0.29;100.00;103748.47;5111727;28;20032;-78
2023/01/23 03:59:27;;;;;;;35.88;15.25;;;;;;;-0.30;100.00;103750.22;5109722;28;20077;-78
2023/01/23 04:01:52;;;;;;;33.97;15.00;;;;;;;-0.31;100.00;103745.84;5109937;28;20035;-78
2023/01/23 04:04:17;;;;;;;32.55;15.63;;;;;;;-0.31;100.00;103743.22;5111749;28;20352;-77
2023/01/23 04:06:43;;;;;;;33.85;15.57;;;;;;;-0.30;100.00;103744.09;5111404;28;20081;-78
2023/01/23 04:09:08;;;;;;;38.20;15.25;;;;;;;-0.30;100.00;103739.75;5111782;28;20062;-79
2023/01/23 04:11:34;;;;;;;36.55;16.02;;;;;;;-0.26;100.00;103748.47;5109363;28;20036;-79
2023/01/23 04:13:59;;;;;;;39.05;15.90;;;;;;;-0.28;100.00;103743.22;5110828;28;20035;-78
2023/01/23 04:16:26;;;;;;;38.90;15.27;;;;;;;-0.27;100.00;103742.38;5111151;28;20119;-78
2023/01/23 04:18:53;;;;;;;37.55;15.65;;;;;;;-0.26;100.00;103751.06;5110758;28;20443;-77
2023/01/23 04:21:19;;;;;;;33.92;16.42;;;;;;;-0.25;100.00;103750.22;5111146;28;20383;-78
2023/01/23 04:23:44;;;;;;;39.25;15.68;;;;;;;-0.27;100.00;103750.22;5111078;28;20028;-78
2023/01/23 04:26:10;;;;;;;37.53;16.23;;;;;;;-0.26;100.00;103749.31;5110913;28;20065;-77
2023/01/23 04:28:35;;;;;;;35.20;15.90;;;;;;;-0.25;100.00;103756.31;5111070;28;20043;-78
2023/01/23 04:31:01;;;;;;;41.08;16.27;;;;;;;-0.22;100.00;103771.16;5110725;28;20051;-79
2023/01/23 04:33:26;;;;;;;37.65;16.33;;;;;;;-0.22;100.00;103765.91;5110056;28;20503;-78
2023/01/23 04:36:02;;;;;;;35.13;15.55;;;;;;;-0.23;100.00;103772.00;5110716;28;20040;-79
2023/01/23 04:38:29;;;;;;;36.78;15.82;;;;;;;-0.22;100.00;103774.63;5110319;28;20035;-79
2023/01/23 04:40:55;;;;;;;30.58;14.93;;;;;;;-0.23;100.00;103770.25;5110377;28;20032;-77
2023/01/23 04:43:20;;;;;;;52.15;17.48;;;;;;;-0.21;100.00;103775.50;5110564;28;20370;-80
2023/01/23 04:45:49;;;;;;;30.50;16.33;;;;;;;-0.21;100.00;103771.16;5109902;28;20043;-77
2023/01/23 04:48:14;;;;;;;35.83;16.08;;;;;;;-0.20;100.00;103766.78;5110271;28;20043;-78
2023/01/23 04:50:40;;;;;;;37.65;15.45;;;;;;;-0.17;100.00;103769.41;5108356;28;20379;-78
2023/01/23 04:53:06;;;;;;;38.28;15.77;;;;;;;-0.15;100.00;103775.53;5110207;28;20084;-78
2023/01/23 04:55:32;;;;;;;48.15;17.20;;;;;;;-0.15;100.00;103775.53;5109855;28;20455;-78
2023/01/23 04:57:59;;;;;;;40.65;15.65;;;;;;;-0.14;100.00;103781.63;5092533;28;20060;-78
2023/01/23 05:00:28;;;;;;;39.58;15.20;;;;;;;-0.12;100.00;103777.25;5110706;28;20148;-79
2023/01/23 05:02:54;;;;;;;31.17;15.50;;;;;;;-0.12;100.00;103778.16;5108681;28;20137;-77
2023/01/23 05:05:20;;;;;;;36.03;15.18;;;;;;;-0.12;100.00;103775.53;5110282;28;20042;-78
2023/01/23 05:07:46;;;;;;;34.65;15.50;;;;;;;-0.09;100.00;103778.16;5110231;28;20035;-78
2023/01/23 05:10:13;;;;;;;35.33;14.90;;;;;;;-0.09;100.00;103782.50;5110755;28;20075;-77
2023/01/23 05:12:38;;;;;;;33.22;14.15;;;;;;;-0.07;100.00;103794.72;5109979;28;20135;-79
2023/01/23 05:15:04;;;;;;;28.77;14.52;;;;;;;-0.06;100.00;103792.97;5110427;28;20421;-79
2023/01/23 05:17:30;;;;;;;30.52;14.98;;;;;;;-0.06;100.00;103793.88;5111019;28;20110;-78
2023/01/23 05:19:55;;;;;;;32.40;15.10;;;;;;;-0.04;100.00;103791.25;5110567;28;20070;-78
2023/01/23 05:22:21;;;;;;;39.78;16.30;;;;;;;-0.03;100.00;103790.34;5110663;28;20449;-78
2023/01/23 05:24:47;;;;;;;33.30;14.45;;;;;;;-0.02;100.00;103792.09;5110523;28;20080;-78
2023/01/23 05:27:12;;;;;;;35.25;16.35;;;;;;;-0.03;100.00;103790.34;5110561;28;20031;-78
2023/01/23 05:29:38;;;;;;;33.72;15.50;;;;;;;-0.03;100.00;103780.78;5110061;28;20040;-79
2023/01/23 05:32:03;;;;;;;36.30;15.95;;;;;;;-0.03;100.00;103775.53;5108129;28;20042;-78
2023/01/23 05:34:29;;;;;;;33.13;14.98;;;;;;;-0.03;100.00;103777.25;5109662;28;20434;-77
2023/01/23 05:36:54;;;;;;;33.15;16.40;;;;;;;-0.04;100.00;103776.41;5109738;28;20080;-77
2023/01/23 05:39:19;;;;;;;36.30;16.25;;;;;;;-0.03;100.00;103779.88;5108372;28;20396;-77
2023/01/23 05:41:45;;;;;;;38.30;15.80;;;;;;;-0.02;100.00;103779.03;5108001;28;20043;-78
2023/01/23 05:44:10;;;;;;;34.38;16.08;;;;;;;-0.04;100.00;103779.03;5109465;28;20036;-79
2023/01/23 05:46:36;;;;;;;40.40;16.38;;;;;;;-0.04;100.00;103779.03;5110302;28;20172;-80
2023/01/23 05:49:01;;;;;;;39.80;17.50;;;;;;;-0.04;100.00;103776.41;5109970;28;20055;-78
2023/01/23 05:51:31;;;;;;;39.22;17.63;;;;;;;-0.05;100.00;103777.25;5109822;28;20119;-78
2023/01/23 05:53:57;;;;;;;39.42;16.90;;;;;;;-0.04;100.00;103780.78;5109663;28;20120;-78
2023/01/23 05:56:23;;;;;;;41.15;17.02;;;;;;;-0.06;100.00;103780.78;5109433;28;20027;-79
2023/01/23 05:58:49;;;;;;;43.47;16.95;;;;;;;-0.06;100.00;103786.00;5109137;28;20566;-78
2023/01/23 06:01:14;;;;;;;44.83;17.17;;;;;;;-0.06;100.00;103786.00;5109570;28;20030;-79
2023/01/23 06:03:39;;;;;;;41.08;17.05;;;;;;;-0.04;100.00;103784.25;5110190;28;20054;-78
2023/01/23 06:06:05;;;;;;;41.13;16.70;;;;;;;-0.06;100.00;103780.78;5109541;28;20454;-78
2023/01/23 06:08:30;;;;;;;36.00;16.10;;;;;;;-0.04;100.00;103783.41;5112683;28;20390;-80
2023/01/23 06:10:59;;;;;;;37.65;16.42;;;;;;;-0.06;100.00;103790.34;5112946;27;20096;-77
2023/01/23 06:13:26;;;;;;;39.13;17.83;;;;;;;-0.06;100.00;103786.00;5113385;28;20168;-78
2023/01/23 06:15:51;;;;;;;39.35;18.17;;;;;;;-0.06;100.00;103796.47;5113063;28;20043;-80
2023/01/23 06:18:17;;;;;;;42.42;17.00;;;;;;;-0.06;100.00;103793.88;5113975;28;20444;-80
2023/01/23 06:20:43;;;;;;;38.65;16.73;;;;;;;-0.07;100.00;103791.25;5114126;28;20024;-79
2023/01/23 06:23:08;;;;;;;36.22;17.50;;;;;;;-0.07;100.00;103783.41;5113633;28;20104;-78
2023/01/23 06:25:35;;;;;;;38.28;16.58;;;;;;;-0.06;100.00;103793.88;5112044;28;20130;-79
2023/01/23 06:28:00;;;;;;;39.90;16.90;;;;;;;-0.07;100.00;103794.72;5113789;28;20107;-79
2023/01/23 06:30:26;;;;;;;39.72;17.23;;;;;;;-0.07;100.00;103797.34;5113320;28;20377;-79
2023/01/23 06:32:51;;;;;;;37.90;16.73;;;;;;;-0.07;100.00;103794.72;5113342;28;20497;-79
2023/01/23 06:35:17;;;;;;;42.78;17.40;;;;;;;-0.06;100.00;103793.88;5113992;28;20051;-78
2023/01/23 06:37:42;;;;;;;40.97;17.90;;;;;;;-0.06;100.00;103795.59;5113550;28;20110;-77
2023/01/23 06:40:11;;;;;;;40.45;17.45;;;;;;;-0.06;100.00;103796.47;5113686;28;20672;-78
2023/01/23 06:42:38;;;;;;;38.10;16.30;;;;;;;-0.06;100.00;103790.34;5113464;28;20035;-78
2023/01/23 06:45:04;;;;;;;38.28;16.30;;;;;;;-0.07;100.00;103799.97;5113604;28;20107;-78
2023/01/23 06:47:30;;;;;;;35.83;16.85;;;;;;;-0.06;100.00;103800.81;5113652;28;20031;-79
2023/01/23 06:49:55;;;;;;;49.38;19.50;;;;;;;-0.06;100.00;103806.94;5113634;28;20047;-79
2023/01/23 06:52:20;;;;;;;46.85;20.15;;;;;;;-0.08;100.00;103808.69;5113380;28;20031;-78
2023/01/23 06:54:46;;;;;;;41.03;17.48;;;;;;;-0.07;100.00;103809.56;5113705;28;20032;-78
2023/01/23 06:57:12;;;;;;;36.42;17.17;;;;;;;-0.09;100.00;103809.56;5112882;28;20124;-79
2023/01/23 06:59:37;;;;;;;37.20;16.83;;;;;;;-0.08;100.00;103818.28;5112385;28;20034;-78
2023/01/23 07:02:03;;;;;;;45.80;17.20;;;;;;;-0.10;100.00;103820.03;5113009;28;20027;-77
2023/01/23 07:04:28;;;;;;;36.33;16.27;;;;;;;-0.10;100.00;103813.03;5112873;28;20027;-78
2023/01/23 07:06:54;;;;;;;46.70;17.80;;;;;;;-0.10;100.00;103820.03;5112704;27;20508;-81
2023/01/23 07:09:19;;;;;;;37.85;16.65;;;;;;;-0.09;100.00;103811.28;5112328;28;20032;-79
2023/01/23 07:11:44;;;;;;;40.42;17.58;;;;;;;-0.08;100.00;103815.66;5113091;28;20031;-78
2023/01/23 07:14:10;;;;;;;35.38;16.92;;;;;;;-0.09;100.00;103821.75;5112473;28;20501;-78
2023/01/23 07:16:35;;;;;;;41.38;17.63;;;;;;;-0.07;100.00;103830.50;5112654;28;20454;-78
2023/01/23 07:19:02;;;;;;;50.78;19.02;;;;;;;-0.08;100.00;103826.13;5112350;28;20059;-79
2023/01/23 07:21:28;;;;;;;41.85;17.70;;;;;;;-0.06;100.00;103832.22;5112568;28;20047;-79
2023/01/23 07:23:53;;;;;;;45.08;18.23;;;;;;;-0.06;100.00;103841.00;5111427;28;20100;-78
2023/01/23 07:26:19;;;;;;;45.45;18.85;;;;;;;-0.06;100.00;103834.84;5112531;28;20027;-78
2023/01/23 07:28:44;;;;;;;43.78;18.73;;;;;;;-0.06;100.00;103838.38;5112390;28;20035;-77
2023/01/23 07:31:09;;;;;;;38.88;16.85;;;;;;;-0.05;100.00;103834.00;5112551;28;20034;-79
2023/01/23 07:33:35;;;;;;;42.10;17.73;;;;;;;-0.06;100.00;103830.50;5112070;28;20436;-78
2023/01/23 07:36:04;;;;;;;37.13;16.27;;;;;;;-0.06;100.00;103827.00;5112090;28;20031;-79
2023/01/23 07:38:30;;;;;;;35.88;17.83;;;;;;;-0.06;100.00;103838.38;5113097;28;20320;-78
2023/01/23 07:40:58;;;;;;;48.72;18.38;;;;;;;-0.04;100.00;103841.00;5112311;28;20036;-78
2023/01/23 07:43:24;;;;;;;44.33;18.40;;;;;;;-0.04;100.00;103847.09;5112692;28;20455;-77
2023/01/23 07:45:49;;;;;;;39.35;17.30;;;;;;;-0.02;100.00;103852.31;5112489;28;20056;-79
2023/01/23 07:48:15;;;;;;;44.95;17.63;;;;;;;0.01;100.00;103856.69;5111807;28;20050;-78
2023/01/23 07:50:41;;;;;;;40.03;17.27;;;;;;;0.01;100.00;103860.19;5112997;28;20043;-78
2023/01/23 07:53:06;;;;;;;44.00;18.58;;;;;;;0.02;100.00;103859.31;5112122;28;20123;-79
2023/01/23 07:55:32;;;;;;;38.03;17.98;;;;;;;0.04;100.00;103861.94;5112525;28;20051;-79
2023/01/23 07:57:58;;;;;;;44.60;18.17;;;;;;;0.04;100.00;103861.94;5112077;28;20043;-78
2023/01/23 08:00:23;;;;;;;39.95;17.95;;;;;;;0.06;100.00;103866.31;5110478;28;20055;-78
2023/01/23 08:02:49;;;;;;;45.20;18.73;;;;;;;0.08;100.00;103866.31;5111885;28;20347;-77
2023/01/23 08:05:15;;;;;;;42.47;17.73;;;;;;;0.10;100.00;103869.81;5111579;28;20028;-78
2023/01/23 08:07:41;;;;;;;41.00;18.45;;;;;;;0.13;100.00;103872.44;5110460;28;20309;-80
2023/01/23 08:10:07;;;;;;;48.42;19.70;;;;;;;0.15;100.00;103875.91;5111627;28;20028;-78
2023/01/23 08:12:33;;;;;;;45.50;19.10;;;;;;;0.16;100.00;103878.56;5111372;28;20103;-79
2023/01/23 08:14:59;;;;;;;40.72;18.98;;;;;;;0.21;100.00;103886.44;5111950;28;20489;-76
2023/01/23 08:17:24;;;;;;;44.72;18.42;;;;;;;0.23;100.00;103892.53;5111353;28;20059;-77
2023/01/23 08:19:50;;;;;;;36.40;17.85;;;;;;;0.26;100.00;103892.53;5111339;28;20108;-76
2023/01/23 08:22:15;;;;;;;42.92;18.30;;;;;;;0.29;100.00;103896.91;5110177;28;20095;-76
2023/01/23 08:24:41;;;;;;;47.50;17.83;;;;;;;0.31;100.00;103900.41;5111241;28;20386;-77
2023/01/23 08:27:06;;;;;;;42.63;18.48;;;;;;;0.32;100.00;103908.25;5110981;28;20027;-74
2023/01/23 08:29:31;;;;;;;40.95;17.95;;;;;;;0.34;100.00;103903.91;5110632;28;20062;-75
2023/01/23 08:31:57;;;;;;;35.67;17.10;;;;;;;0.36;100.00;103903.91;5110681;28;20436;-77
2023/01/23 08:34:23;;;;;;;35.85;17.65;;;;;;;0.39;100.00;103910.88;5110941;28;20044;-78
2023/01/23 08:36:49;;;;;;;45.20;17.98;;;;;;;0.41;100.00;103915.25;5111189;28;20137;-79
2023/01/23 08:39:16;;;;;;;37.50;17.85;;;;;;;0.43;100.00;103913.50;5109319;28;20054;-78
2023/01/23 08:41:41;;;;;;;44.33;17.67;;;;;;;0.45;100.00;103914.41;5110901;28;20436;-77
2023/01/23 08:44:06;;;;;;;39.25;17.73;;;;;;;0.49;100.00;103917.88;5110542;28;20119;-77
2023/01/23 08:46:32;;;;;;;36.50;17.13;;;;;;;0.51;100.00;103924.03;5110981;28;20048;-78
2023/01/23 08:48:57;;;;;;;34.15;16.67;;;;;;;0.55;100.00;103922.25;5110952;28;20027;-78
2023/01/23 08:51:24;;;;;;;35.95;17.40;;;;;;;0.58;100.00;103920.50;5109042;28;20028;-79
2023/01/23 08:53:52;;;;;;;34.88;17.95;;;;;;;0.63;100.00;103923.16;5110603;28;20035;-78
2023/01/23 08:56:20;;;;;;;35.85;16.92;;;;;;;0.65;100.00;103921.41;5110589;28;20039;-75
2023/01/23 08:58:46;;;;;;;33.33;17.40;;;;;;;0.72;100.00;103930.13;5109095;28;20567;-78
2023/01/23 09:01:13;;;;;;;39.85;17.58;;;;;;;0.74;100.00;103931.03;5110241;28;20062;-75
2023/01/23 09:03:39;;;;;;;39.22;17.63;;;;;;;0.77;100.00;103931.88;5108959;28;20027;-79
2023/01/23 09:06:04;;;;;;;39.35;17.77;;;;;;;0.80;100.00;103933.63;5110320;28;20080;-78
2023/01/23 09:08:30;;;;;;;35.92;16.65;;;;;;;0.86;100.00;103936.25;5109043;28;20028;-78
2023/01/23 09:11:03;;;;;;;36.15;18.38;;;;;;;0.87;100.00;103928.38;5110744;28;20470;-76
2023/01/23 09:13:29;;;;;;;27.20;16.98;;;;;;;0.95;100.00;103932.75;5110366;28;20162;-77
2023/01/23 09:15:54;;;;;;;40.97;18.75;;;;;;;0.98;100.00;103933.63;5110258;28;20450;-77
2023/01/23 09:18:21;;;;;;;32.53;17.05;;;;;;;1.01;100.00;103932.75;5110911;28;20449;-77
2023/01/23 09:20:48;;;;;;;35.88;17.63;;;;;;;1.04;100.00;103931.00;5110543;28;20031;-77
2023/01/23 09:23:13;;;;;;;33.55;18.17;;;;;;;1.06;100.00;103933.63;5109239;28;20149;-77
2023/01/23 09:25:39;;;;;;;37.78;17.38;;;;;;;1.09;100.00;103928.38;5110648;28;20081;-77
2023/01/23 09:28:04;;;;;;;28.38;17.08;;;;;;;1.14;100.00;103936.25;5110762;28;20027;-78
2023/01/23 09:30:30;;;;;;;46.47;17.75;;;;;;;1.18;100.00;103932.72;5108778;28;20042;-77
2023/01/23 09:32:55;;;;;;;30.55;16.10;;;;;;;1.21;100.00;103935.38;5108511;28;20042;-75
2023/01/23 09:35:22;;;;;;;32.38;16.80;;;;;;;1.26;100.00;103938.84;5110434;28;20109;-76
2023/01/23 09:38:00;;;;;;;33.45;16.17;;;;;;;1.30;100.00;103943.22;5110406;28;20118;-77
2023/01/23 09:40:35;;;;;;;30.55;15.93;;;;;;;1.33;100.00;103942.31;5110244;28;20031;-77
2023/01/23 09:43:11;;;;;;;32.20;15.25;;;;;;;1.39;100.00;103943.19;5113940;28;20031;-78
2023/01/23 09:45:40;;;;;;;31.55;17.17;;;;;;;1.43;100.00;103938.78;5112693;28;20373;-76
2023/01/23 09:48:30;;;;;;;27.65;16.00;;;;;;;1.49;100.00;103949.28;5114174;28;20104;-78
2023/01/23 09:51:03;;;;;;;30.60;16.20;;;;;;;1.51;100.00;103941.44;5113952;28;20174;-77
2023/01/23 09:53:35;;;;;;;30.50;15.88;;;;;;;1.59;100.00;103943.13;5112033;28;20024;-77
2023/01/23 09:56:16;;;;;;;27.92;16.15;;;;;;;1.64;100.00;103939.63;5113937;28;20050;-77
2023/01/23 09:58:59;;;;;;;28.42;15.30;;;;;;;1.68;100.00;103939.59;5112533;28;20024;-77
2023/01/23 10:01:28;;;;;;;28.02;15.73;;;;;;;1.76;100.00;103937.84;5112598;28;20313;-78
2023/01/23 10:03:54;;;;;;;29.33;15.25;;;;;;;1.88;100.00;103941.28;5113726;28;20028;-78
2023/01/23 10:06:25;;;;;;;25.95;15.38;;;;;;;1.98;100.00;103932.47;5113373;27;20054;-78
2023/01/23 10:09:15;;;;;;;33.47;16.27;;;;;;;2.09;100.00;103922.81;5112274;28;20118;-77
2023/01/23 10:11:43;;;;;;;28.00;15.32;;;;;;;2.20;100.00;103922.72;5113850;28;20076;-78
2023/01/23 10:14:19;;;;;;;25.00;15.20;;;;;;;2.29;100.00;103919.19;5113807;27;20401;-77
2023/01/23 10:17:06;;;;;;;27.85;14.77;;;;;;;2.39;100.00;103918.25;5113682;28;20046;-77
2023/01/23 10:19:39;;;;;;;26.70;15.48;;;;;;;2.46;100.00;103906.81;5113649;28;20068;-78
2023/01/23 10:22:34;;;;;;;24.42;14.70;;;;;;;2.54;100.00;103905.84;5113104;28;20359;-79
2023/01/23 10:25:11;;;;;;;22.05;14.15;;;;;;;2.58;100.00;103904.94;5113547;27;20032;-81
2023/01/23 10:27:43;;;;;;;23.20;13.40;;;;;;;2.63;100.00;103904.03;5113514;28;20053;-83
2023/01/23 10:30:28;;;;;;;24.33;13.80;;;;;;;2.74;100.00;103896.03;5111921;28;20027;-79
2023/01/23 10:33:08;;;;;;;28.33;15.00;;;;;;;2.80;100.00;103901.25;5111896;28;20035;-78
2023/01/23 10:35:50;;;;;;;19.92;13.32;;;;;;;2.88;100.00;103901.22;5113694;28;20155;-78
2023/01/23 10:38:23;;;;;;;21.73;13.38;;;;;;;3.03;100.00;103915.09;5113457;28;20027;-76
2023/01/23 10:43:34;;;;;;;22.23;12.63;;;;;;;3.03;100.00;103920.34;5113196;28;20078;-77
2023/01/23 10:46:00;;;;;;;26.13;14.38;;;;;;;3.05;100.00;103911.56;5113338;28;20048;-78
2023/01/23 10:48:32;;;;;;;23.02;13.90;;;;;;;3.13;100.00;103922.88;5112742;28;20199;-78
2023/01/23 10:51:00;;;;;;;28.48;14.55;;;;;;;3.23;100.00;103920.16;5112685;28;20156;-78
2023/01/23 10:53:26;;;;;;;24.40;13.55;;;;;;;3.21;100.00;103922.81;5110350;28;20031;-78
2023/01/23 10:55:56;;;;;;;25.60;13.98;;;;;;;3.14;100.00;103924.63;5112900;28;20032;-80
2023/01/23 10:58:32;;;;;;;19.95;13.23;;;;;;;3.14;100.00;103922.00;5112863;28;20027;-77
2023/01/23 11:00:58;;;;;;;23.95;13.60;;;;;;;3.20;100.00;103913.16;5112825;28;20047;-77
2023/01/23 11:03:30;;;;;;;20.13;12.77;;;;;;;3.23;100.00;103913.13;5112576;28;20059;-79
2023/01/23 11:06:03;;;;;;;23.40;14.00;;;;;;;3.32;100.00;103922.69;5112775;28;20065;-78
2023/01/23 11:08:37;;;;;;;24.60;13.25;;;;;;;3.47;100.00;103930.41;5112277;28;20020;-78
2023/01/23 11:11:30;;;;;;;20.05;12.68;;;;;;;3.58;100.00;103932.06;5112288;28;20477;-78
2023/01/23 11:14:04;;;;;;;21.02;13.30;;;;;;;3.59;100.00;103926.78;5109230;28;20050;-78